Time;durP1;ratioP1;P1;durP2;ratioP2;P2;SDS_P1;SDS_P2;PMS_P1;PMS_P2;Temp;Humidity;BMP_temperature;BMP_pressure;BME280_temperature;BME280_humidity;BME280_pressure;Samples;Min_cycle;Max_cycle;Signal;HPM_P1;HPM_P2
2022/05/10 00:01:26;;;;;;;0.40;0.40;;;16.00;99.90;16.10;101890.00;;;;5096026;28;20189;-72
2022/05/10 00:03:55;;;;;;;0.40;0.40;;;16.00;99.90;15.90;101886.00;;;;5094198;28;20212;-72
2022/05/10 00:06:26;;;;;;;0.40;0.40;;;15.90;99.90;16.00;101877.00;;;;5092985;28;20245;-72
2022/05/10 00:08:54;;;;;;;0.30;0.30;;;15.90;99.90;15.80;101865.00;;;;5094424;28;20179;-72
2022/05/10 00:11:21;;;;;;;0.40;0.40;;;15.70;99.90;15.50;101876.00;;;;5094666;28;20193;-72
2022/05/10 00:13:50;;;;;;;0.70;0.70;;;15.60;99.90;16.10;101874.00;;;;5075834;28;20184;-72
2022/05/10 00:16:24;;;;;;;0.50;0.50;;;15.80;99.90;16.00;101863.00;;;;5095361;28;20191;-72
2022/05/10 00:18:50;;;;;;;0.40;0.40;;;15.90;99.90;15.80;101825.00;;;;5093187;28;20175;-72
2022/05/10 00:21:26;;;;;;;0.30;0.30;;;15.80;99.90;16.30;101865.00;;;;5093873;28;20266;-72
2022/05/10 00:23:53;;;;;;;0.40;0.40;;;15.90;99.90;16.40;101861.00;;;;5076573;28;20179;-72
2022/05/10 00:26:25;;;;;;;0.40;0.40;;;16.10;99.90;15.80;101850.00;;;;5077631;28;20184;-72
2022/05/10 00:28:56;;;;;;;1.83;1.73;;;15.90;99.90;15.40;101822.00;;;;5094347;28;20600;-72
2022/05/10 00:31:24;;;;;;;0.40;0.40;;;15.70;99.90;15.10;101830.00;;;;5093516;28;20288;-72
2022/05/10 00:33:58;;;;;;;1.03;1.03;;;15.40;99.90;15.20;101829.00;;;;5094222;28;20195;-72
2022/05/10 00:36:27;;;;;;;0.40;0.40;;;15.40;99.90;14.80;101834.00;;;;5093762;28;20261;-72
2022/05/10 00:38:53;;;;;;;0.30;0.30;;;15.20;99.90;14.80;101838.00;;;;5094554;28;20263;-72
2022/05/10 00:41:35;;;;;;;0.40;0.40;;;15.10;99.90;14.80;101831.00;;;;5076392;28;20749;-72
2022/05/10 00:44:57;;;;;;;1.23;1.23;;;15.20;99.90;15.00;101833.00;;;;5093850;28;20179;-72
2022/05/10 00:47:43;;;;;;;0.67;0.67;;;15.30;99.90;15.10;101836.00;;;;5031485;28;20300;-72
2022/05/10 00:50:30;;;;;;;0.40;0.40;;;15.30;99.90;15.60;101837.00;;;;5015869;28;20742;-72
2022/05/10 00:53:22;;;;;;;0.40;0.40;;;15.40;99.90;16.20;101834.00;;;;5068942;28;20248;-72
2022/05/10 00:56:09;;;;;;;0.40;0.40;;;15.90;99.90;16.30;101840.00;;;;5095409;28;20194;-72
2022/05/10 00:59:01;;;;;;;0.40;0.40;;;16.10;99.90;16.50;101834.00;;;;5096641;28;20745;-72
2022/05/10 01:01:32;;;;;;;0.40;0.40;;;16.30;99.90;16.00;101832.00;;;;5096074;28;20180;-73
2022/05/10 01:04:25;;;;;;;0.40;0.40;;;16.10;99.90;16.10;101832.00;;;;5113866;28;20176;-73
2022/05/10 01:07:07;;;;;;;0.40;0.40;;;15.90;99.90;16.10;101829.00;;;;5095880;28;20176;-73
2022/05/10 01:09:58;;;;;;;0.80;0.80;;;15.90;99.90;16.00;101817.00;;;;5096101;28;20211;-73
2022/05/10 01:12:42;;;;;;;0.40;0.40;;;15.90;99.90;15.70;101793.00;;;;5111974;28;20213;-73
2022/05/10 01:15:25;;;;;;;3.33;1.00;;;15.70;99.90;15.20;101769.00;;;;5094504;28;20194;-73
2022/05/10 01:17:58;;;;;;;0.43;0.43;;;15.50;99.90;14.80;101807.00;;;;5112170;28;20180;-73
2022/05/10 01:20:37;;;;;;;0.40;0.40;;;15.30;99.90;14.90;101798.00;;;;5111266;28;20178;-73
2022/05/10 01:23:48;;;;;;;0.60;0.60;;;15.20;99.90;15.00;101795.00;;;;5111700;28;20645;-73
2022/05/10 01:26:52;;;;;;;0.50;0.50;;;15.30;99.90;15.00;101789.00;;;;5111702;28;20174;-73
2022/05/10 01:29:59;;;;;;;0.40;0.40;;;15.30;99.90;15.10;101783.00;;;;5113080;28;20187;-73
2022/05/10 01:36:06;;;;;;;0.67;0.67;;;15.50;99.90;15.30;101736.00;;;;5113749;28;20220;-73
2022/05/10 01:39:00;;;;;;;0.93;0.93;;;15.50;99.90;15.10;101773.00;;;;5101795;28;20199;-72
2022/05/10 01:41:41;;;;;;;0.63;0.63;;;15.50;99.90;15.50;101774.00;;;;5112516;28;20237;-71
2022/05/10 01:44:41;;;;;;;0.70;0.70;;;15.60;99.90;15.50;101741.00;;;;5111666;28;20217;-72
2022/05/10 01:47:56;;;;;;;1.60;1.60;;;15.70;99.90;15.50;101765.00;;;;5112502;28;20259;-72
2022/05/10 01:50:59;;;;;;;1.07;0.57;;;15.70;99.90;15.60;101769.00;;;;5014975;28;20207;-71
2022/05/10 01:53:35;;;;;;;0.30;0.30;;;15.80;99.90;15.90;101762.00;;;;5097971;28;20183;-71
2022/05/10 01:56:07;;;;;;;0.50;0.50;;;15.90;99.90;15.70;101765.00;;;;5075535;28;20189;-71
2022/05/10 01:58:40;;;;;;;1.40;1.30;;;16.00;99.90;15.70;101746.00;;;;5076225;28;20264;-71
2022/05/10 02:01:22;;;;;;;6.90;6.43;;;16.00;99.90;16.00;101759.00;;;;5075298;28;20276;-72
2022/05/10 02:04:14;;;;;;;0.37;0.37;;;16.10;99.90;16.00;101750.00;;;;5091703;28;20234;-72
2022/05/10 02:06:57;;;;;;;0.30;0.30;;;16.20;99.90;16.10;101758.00;;;;5075382;28;20322;-72
2022/05/10 02:09:32;;;;;;;0.40;0.40;;;16.30;99.90;16.00;101742.00;;;;5090827;28;20208;-72
2022/05/10 02:12:11;;;;;;;1.20;1.07;;;16.20;99.90;16.00;101751.00;;;;5092933;28;20198;-72
2022/05/10 02:15:14;;;;;;;1.03;1.03;;;16.30;99.90;16.10;101756.00;;;;5093543;28;20236;-72
2022/05/10 02:17:59;;;;;;;1.60;0.80;;;16.40;99.90;16.20;101744.00;;;;5086757;28;20196;-72
2022/05/10 02:20:38;;;;;;;2.57;1.13;;;16.40;99.90;16.10;101747.00;;;;5091650;28;20171;-72
2022/05/10 02:23:21;;;;;;;2.00;1.73;;;16.40;99.90;16.20;101725.00;;;;5084573;28;20186;-72
2022/05/10 02:25:57;;;;;;;0.63;0.63;;;16.40;99.90;16.30;101756.00;;;;5111221;28;20227;-72
2022/05/10 02:28:38;;;;;;;0.30;0.30;;;16.50;99.90;16.20;101749.00;;;;5112981;28;20624;-72
2022/05/10 02:31:18;;;;;;;2.50;2.17;;;16.50;99.90;16.20;101702.00;;;;5111849;28;20165;-72
2022/05/10 02:33:46;;;;;;;6.07;5.23;;;16.50;99.90;16.40;101739.00;;;;5113736;28;20669;-72
2022/05/10 02:36:12;;;;;;;0.40;0.40;;;16.50;99.90;16.40;101725.00;;;;5112665;28;20187;-72
2022/05/10 02:38:40;;;;;;;1.17;1.17;;;16.50;99.90;16.50;101735.00;;;;5095760;28;20540;-72
2022/05/10 02:41:20;;;;;;;0.70;0.70;;;16.60;99.90;16.80;101699.00;;;;5113181;28;20630;-72
2022/05/10 02:43:58;;;;;;;0.60;0.60;;;16.70;99.90;16.50;101734.00;;;;5093481;28;20182;-72
2022/05/10 02:46:26;;;;;;;0.20;0.20;;;16.70;99.90;16.60;101718.00;;;;5112355;28;20193;-72
2022/05/10 02:48:53;;;;;;;0.37;0.37;;;16.70;99.90;16.60;101727.00;;;;5095656;28;20188;-72
2022/05/10 02:51:19;;;;;;;2.40;1.47;;;16.70;99.90;16.50;101720.00;;;;5112360;28;20221;-72
2022/05/10 02:53:46;;;;;;;0.30;0.30;;;16.70;99.90;16.70;101683.00;;;;5098044;28;20217;-72
2022/05/10 02:57:00;;;;;;;0.60;0.60;;;16.70;99.90;16.60;101728.00;;;;5075379;28;20203;-72
2022/05/10 02:59:45;;;;;;;0.70;0.70;;;16.70;99.90;16.50;101708.00;;;;5083716;28;20303;-72
2022/05/10 03:02:23;;;;;;;1.20;0.30;;;16.70;99.90;16.60;101701.00;;;;5074912;28;20190;-72
2022/05/10 03:04:57;;;;;;;0.93;0.77;;;16.70;99.90;16.30;101669.00;;;;5075187;28;20222;-72
2022/05/10 03:07:25;;;;;;;0.90;0.90;;;16.70;99.90;16.60;101705.00;;;;5091331;28;20174;-71
2022/05/10 03:09:54;;;;;;;1.13;1.07;;;16.70;99.90;16.50;101697.00;;;;5092098;28;20247;-72
2022/05/10 03:12:20;;;;;;;0.30;0.30;;;16.70;99.90;16.70;101697.00;;;;5091151;28;20210;-72
2022/05/10 03:14:49;;;;;;;0.43;0.43;;;16.70;99.90;16.70;101682.00;;;;5073832;28;20188;-72
2022/05/10 03:17:17;;;;;;;0.20;0.20;;;16.70;99.90;16.60;101690.00;;;;5090761;28;20179;-72
2022/05/10 03:19:48;;;;;;;1.30;1.23;;;16.70;99.90;16.70;101687.00;;;;5077858;28;20182;-72
2022/05/10 03:22:14;;;;;;;0.97;0.90;;;16.70;99.90;16.70;101683.00;;;;5095496;28;20232;-72
2022/05/10 03:24:41;;;;;;;3.67;1.20;;;16.70;99.90;16.70;101688.00;;;;5094848;28;20190;-72
2022/05/10 03:27:09;;;;;;;0.30;0.30;;;16.80;99.90;16.50;101676.00;;;;5078291;28;20193;-72
2022/05/10 03:29:39;;;;;;;0.87;0.87;;;16.70;99.90;16.50;101675.00;;;;5096354;28;20173;-71
2022/05/10 03:32:06;;;;;;;4.90;2.40;;;16.60;99.90;16.50;101647.00;;;;5095323;28;20213;-71
2022/05/10 03:34:57;;;;;;;2.63;2.00;;;16.60;99.90;16.30;101665.00;;;;5077346;28;20192;-71
2022/05/10 03:37:29;;;;;;;1.90;1.10;;;16.60;99.90;16.20;101650.00;;;;5080903;28;20228;-72
2022/05/10 03:40:00;;;;;;;1.43;1.37;;;16.40;99.90;16.20;101660.00;;;;5095137;28;20166;-72
2022/05/10 03:42:27;;;;;;;0.87;0.87;;;16.50;99.90;16.30;101645.00;;;;5095098;28;20191;-71
2022/05/10 03:44:55;;;;;;;4.33;2.90;;;16.50;99.90;16.30;101642.00;;;;5078119;28;20585;-70
2022/05/10 03:47:26;;;;;;;0.53;0.53;;;16.50;99.90;16.20;101649.00;;;;5078250;28;20194;-71
2022/05/10 03:49:54;;;;;;;0.87;0.87;;;16.40;99.90;16.20;101606.00;;;;5093745;28;20204;-72
2022/05/10 03:52:20;;;;;;;1.50;1.47;;;16.40;99.90;16.40;101650.00;;;;5078299;28;20251;-71
2022/05/10 03:54:46;;;;;;;0.50;0.50;;;16.50;99.90;16.40;101646.00;;;;5097162;28;20213;-71
2022/05/10 03:57:12;;;;;;;1.70;1.43;;;16.50;99.90;16.30;101642.00;;;;5098321;28;20196;-71
2022/05/10 03:59:41;;;;;;;0.50;0.40;;;16.50;99.90;16.20;101642.00;;;;5114403;28;20178;-72
2022/05/10 04:02:16;;;;;;;1.87;1.27;;;16.50;99.90;16.30;101647.00;;;;5114323;28;20525;-71
2022/05/10 04:04:42;;;;;;;0.63;0.63;;;16.50;99.90;16.50;101630.00;;;;5115067;28;20192;-71
2022/05/10 04:07:10;;;;;;;2.40;2.30;;;16.50;99.90;16.40;101637.00;;;;5115310;28;20205;-71
2022/05/10 04:09:36;;;;;;;0.53;0.53;;;16.50;99.90;16.30;101596.00;;;;5115358;28;20234;-72
2022/05/10 04:12:03;;;;;;;0.50;0.50;;;16.50;99.90;16.10;101636.00;;;;5116018;28;20248;-72
2022/05/10 04:14:29;;;;;;;0.30;0.30;;;16.40;99.90;16.10;101628.00;;;;5116062;28;20181;-72
2022/05/10 04:16:55;;;;;;;0.43;0.43;;;16.30;99.90;16.20;101633.00;;;;5097851;28;20177;-72
2022/05/10 04:19:22;;;;;;;2.10;1.63;;;16.40;99.90;16.40;101589.00;;;;5113700;28;20582;-71
2022/05/10 04:21:50;;;;;;;0.30;0.30;;;16.40;99.90;16.40;101637.00;;;;5114730;28;20215;-71
2022/05/10 04:24:17;;;;;;;0.53;0.53;;;16.50;99.90;16.40;101643.00;;;;5100931;28;20691;-71
2022/05/10 04:26:47;;;;;;;1.40;1.40;;;16.50;99.90;16.60;101642.00;;;;5093860;28;20298;-71
2022/05/10 04:29:13;;;;;;;0.20;0.20;;;16.70;99.90;16.60;101633.00;;;;5093970;28;20536;-71
2022/05/10 04:31:39;;;;;;;0.93;0.93;;;16.60;99.90;16.50;101635.00;;;;5076929;28;20213;-71
2022/05/10 04:34:05;;;;;;;1.07;0.77;;;16.60;99.90;16.50;101622.00;;;;5092729;28;20241;-71
2022/05/10 04:36:31;;;;;;;0.70;0.70;;;16.60;99.90;16.40;101639.00;;;;5077360;28;20234;-71
2022/05/10 04:38:57;;;;;;;0.40;0.40;;;16.70;99.90;16.30;101636.00;;;;5094103;28;20183;-71
2022/05/10 04:41:34;;;;;;;1.03;1.03;;;16.60;99.90;16.60;101590.00;;;;5077216;28;20185;-71
2022/05/10 04:44:08;;;;;;;0.20;0.20;;;16.70;99.90;16.40;101631.00;;;;5093582;28;20185;-71
2022/05/10 04:46:36;;;;;;;1.27;1.17;;;16.70;99.90;16.60;101629.00;;;;5094546;28;20687;-73
2022/05/10 04:49:05;;;;;;;0.60;0.60;;;16.70;99.90;16.70;101636.00;;;;5093563;28;20709;-72
2022/05/10 04:51:31;;;;;;;0.40;0.40;;;16.80;99.90;16.50;101626.00;;;;5091725;28;20202;-72
2022/05/10 04:54:00;;;;;;;0.40;0.40;;;16.90;99.90;16.60;101601.00;;;;5101451;28;20172;-73
2022/05/10 04:56:27;;;;;;;2.20;1.27;;;16.80;99.90;16.60;101579.00;;;;5113763;28;20177;-72
2022/05/10 04:58:54;;;;;;;0.60;0.60;;;16.90;99.90;16.60;101623.00;;;;5114985;28;20176;-72
2022/05/10 05:01:28;;;;;;;0.20;0.20;;;16.90;99.90;16.60;101620.00;;;;5113523;28;20175;-71
2022/05/10 05:03:59;;;;;;;0.60;0.60;;;16.90;99.90;16.70;101581.00;;;;5114101;28;20660;-71
2022/05/10 05:06:29;;;;;;;0.83;0.83;;;17.00;99.90;16.90;101626.00;;;;5112349;28;20203;-72
2022/05/10 05:08:58;;;;;;;0.43;0.43;;;17.10;99.90;16.90;101621.00;;;;5095390;28;20183;-72
2022/05/10 05:11:24;;;;;;;0.30;0.30;;;17.10;99.90;17.00;101634.00;;;;5113076;28;20658;-71
2022/05/10 05:13:53;;;;;;;0.53;0.53;;;17.20;99.90;17.00;101628.00;;;;5096575;28;20541;-71
2022/05/10 05:16:19;;;;;;;1.40;1.40;;;17.20;99.90;17.00;101633.00;;;;5097075;28;20533;-71
2022/05/10 05:18:48;;;;;;;0.87;0.87;;;17.20;99.90;16.90;101601.00;;;;5096652;28;20178;-71
2022/05/10 05:21:14;;;;;;;0.57;0.57;;;17.30;99.90;17.00;101628.00;;;;5114663;28;20694;-71
2022/05/10 05:23:42;;;;;;;0.27;0.27;;;17.20;99.90;17.10;101637.00;;;;5089094;28;20800;-72
2022/05/10 05:26:08;;;;;;;1.40;1.40;;;17.30;99.90;17.00;101628.00;;;;5092489;28;20178;-71
2022/05/10 05:28:39;;;;;;;0.20;0.20;;;17.30;99.90;17.10;101634.00;;;;5075503;28;20202;-72
2022/05/10 05:31:14;;;;;;;1.77;1.37;;;17.40;99.90;17.20;101639.00;;;;5075783;28;20184;-71
2022/05/10 05:33:42;;;;;;;1.57;1.47;;;17.40;99.90;17.20;101624.00;;;;5092840;28;20172;-71
2022/05/10 05:36:11;;;;;;;0.30;0.30;;;17.50;99.90;17.40;101646.00;;;;5092380;28;20184;-71
2022/05/10 05:38:54;;;;;;;0.90;0.83;;;17.50;99.90;17.50;101645.00;;;;5075675;28;20642;-71
2022/05/10 05:41:21;;;;;;;0.53;0.53;;;17.60;99.90;17.90;101641.00;;;;5074645;28;20298;-71
2022/05/10 05:43:49;;;;;;;0.73;0.73;;;17.80;99.90;17.80;101608.00;;;;5092002;28;20185;-72
2022/05/10 05:46:15;;;;;;;0.40;0.40;;;17.90;99.90;17.60;101645.00;;;;5075772;28;20190;-72
2022/05/10 05:49:01;;;;;;;0.60;0.60;;;17.90;99.90;17.70;101643.00;;;;5074757;28;20188;-72
2022/05/10 05:51:29;;;;;;;0.40;0.40;;;17.90;99.90;17.80;101600.00;;;;5092621;28;20656;-73
2022/05/10 05:53:55;;;;;;;0.40;0.40;;;17.90;99.90;17.80;101639.00;;;;5081661;28;20260;-72
2022/05/10 05:56:20;;;;;;;1.33;1.20;;;18.00;99.90;17.80;101637.00;;;;5091514;28;20272;-72
2022/05/10 05:58:46;;;;;;;0.37;0.33;;;18.00;99.90;17.60;101646.00;;;;5075527;28;20187;-73
2022/05/10 06:01:15;;;;;;;1.17;1.17;;;18.00;99.90;17.60;101644.00;;;;5091981;28;20182;-72
2022/05/10 06:03:42;;;;;;;0.83;0.83;;;18.00;99.90;17.80;101635.00;;;;5091487;28;20671;-73
2022/05/10 06:06:11;;;;;;;0.20;0.20;;;18.00;99.90;18.10;101630.00;;;;5092583;28;20214;-72
2022/05/10 06:08:37;;;;;;;0.60;0.60;;;18.10;99.90;18.10;101643.00;;;;5092038;28;20254;-72
2022/05/10 06:11:03;;;;;;;0.60;0.33;;;18.30;99.90;18.20;101628.00;;;;5074881;28;20278;-72
2022/05/10 06:13:31;;;;;;;8.30;1.30;;;18.30;99.90;18.40;101621.00;;;;5092005;28;20220;-72
2022/05/10 06:16:00;;;;;;;1.67;1.50;;;18.50;99.90;18.20;101631.00;;;;5091072;28;20203;-72
2022/05/10 06:18:25;;;;;;;0.87;0.87;;;18.50;99.90;18.30;101639.00;;;;5092664;28;20174;-72
2022/05/10 06:20:52;;;;;;;0.45;0.45;;;18.50;99.90;18.50;101630.00;;;;5074911;28;20191;-73
2022/05/10 06:23:18;;;;;;;0.67;0.67;;;18.60;99.90;18.70;101598.00;;;;5091550;28;20286;-73
2022/05/10 06:25:49;;;;;;;0.20;0.20;;;18.80;99.90;18.60;101629.00;;;;5075415;28;20275;-72
2022/05/10 06:28:19;;;;;;;1.00;1.00;;;18.80;99.90;18.40;101636.00;;;;5092189;28;20210;-72
2022/05/10 06:30:46;;;;;;;0.65;0.65;;;18.80;99.90;18.70;101615.00;;;;5092274;28;20181;-73
2022/05/10 06:33:12;;;;;;;0.32;0.32;;;18.80;99.90;18.60;101621.00;;;;5091300;28;20212;-72
2022/05/10 06:35:47;;;;;;;0.20;0.20;;;18.80;99.90;18.90;101633.00;;;;5091677;28;20176;-72
2022/05/10 06:38:16;;;;;;;0.63;0.63;;;18.90;99.90;18.50;101626.00;;;;5091396;28;20183;-72
2022/05/10 06:40:47;;;;;;;0.75;0.45;;;18.90;99.90;19.10;101639.00;;;;5091356;28;20188;-73
2022/05/10 06:43:14;;;;;;;1.08;1.05;;;19.10;99.90;19.10;101644.00;;;;5075057;28;20241;-72
2022/05/10 06:45:43;;;;;;;2.10;1.77;;;19.20;99.90;19.00;101593.00;;;;5075464;28;20188;-72
2022/05/10 06:48:09;;;;;;;1.42;1.33;;;19.20;99.90;19.40;101641.00;;;;5073503;28;20250;-72
2022/05/10 06:50:37;;;;;;;1.13;1.10;;;19.40;99.90;19.00;101634.00;;;;5092130;28;20247;-72
2022/05/10 06:53:04;;;;;;;1.30;1.20;;;19.40;99.90;19.10;101630.00;;;;5092111;28;20570;-72
2022/05/10 06:55:33;;;;;;;0.40;0.40;;;19.30;99.90;19.10;101626.00;;;;5096234;28;20183;-72
2022/05/10 06:58:02;;;;;;;9.48;4.07;;;19.30;99.90;19.20;101621.00;;;;5116112;28;20176;-72
2022/05/10 07:00:32;;;;;;;1.27;1.17;;;19.30;99.90;19.40;101612.00;;;;5116332;28;20203;-72
2022/05/10 07:02:58;;;;;;;0.30;0.30;;;19.50;99.90;19.60;101619.00;;;;5117192;28;20654;-72
2022/05/10 07:05:29;;;;;;;0.60;0.60;;;19.60;99.90;20.00;101625.00;;;;5115918;28;20180;-72
2022/05/10 07:07:54;;;;;;;2.60;0.60;;;19.80;99.90;19.90;101637.00;;;;5115690;28;20168;-72
2022/05/10 07:10:20;;;;;;;1.27;1.23;;;20.00;99.90;19.70;101638.00;;;;5098290;28;20288;-73
2022/05/10 07:12:46;;;;;;;1.08;1.05;;;19.80;99.90;19.80;101607.00;;;;5115815;28;20576;-72
2022/05/10 07:15:32;;;;;;;1.27;1.27;;;19.80;99.90;19.80;101636.00;;;;5114661;28;20233;-72
2022/05/10 07:17:58;;;;;;;0.30;0.30;;;19.80;99.90;20.00;101600.00;;;;5115006;28;20202;-72
2022/05/10 07:20:24;;;;;;;0.10;0.10;;;19.90;99.90;20.00;101625.00;;;;5115681;28;20168;-73
2022/05/10 07:22:58;;;;;;;0.10;0.10;;;20.00;99.90;20.10;101617.00;;;;5116026;28;20168;-70
2022/05/10 07:25:32;;;;;;;0.45;0.45;;;20.10;99.90;19.80;101643.00;;;;5115917;28;20187;-71
2022/05/10 07:28:18;;;;;;;0.65;0.57;;;19.90;99.90;19.40;101629.00;;;;5116315;28;20279;-70
2022/05/10 07:31:02;;;;;;;0.20;0.20;;;19.70;99.90;19.70;101613.00;;;;5112236;28;20241;-71
2022/05/10 07:34:29;;;;;;;0.90;0.90;;;19.70;99.90;20.10;101637.00;;;;5095123;28;20208;-72
2022/05/10 07:36:55;;;;;;;0.30;0.30;;;20.00;99.90;19.90;101631.00;;;;5078955;28;20171;-71
2022/05/10 07:39:22;;;;;;;1.45;1.33;;;20.00;99.90;19.60;101629.00;;;;5095108;28;21033;-71
2022/05/10 07:41:51;;;;;;;0.30;0.30;;;19.90;99.90;19.60;101586.00;;;;5098041;28;20210;-71
2022/05/10 07:44:17;;;;;;;0.15;0.15;;;19.90;99.90;19.90;101630.00;;;;5102631;28;20179;-72
2022/05/10 07:46:43;;;;;;;0.52;0.52;;;20.00;99.90;20.30;101590.00;;;;5115394;28;20259;-71
2022/05/10 07:49:09;;;;;;;0.52;0.52;;;20.20;99.90;20.40;101630.00;;;;5114881;28;20696;-72
2022/05/10 07:51:35;;;;;;;2.30;1.10;;;20.40;99.90;20.20;101607.00;;;;5091448;28;20310;-68
2022/05/10 07:54:01;;;;;;;0.35;0.35;;;20.40;99.90;20.50;101594.00;;;;5115044;28;20259;-66
2022/05/10 07:56:31;;;;;;;0.70;0.70;;;20.50;99.90;20.80;101636.00;;;;5098324;28;20181;-69
2022/05/10 07:59:07;;;;;;;0.70;0.70;;;20.70;99.90;21.00;101647.00;;;;5111059;28;20222;-75
2022/05/10 08:01:37;;;;;;;0.82;0.82;;;20.90;99.90;21.40;101593.00;;;;5099282;28;20542;-82
2022/05/10 08:04:08;;;;;;;0.38;0.38;;;21.30;99.90;21.80;101624.00;;;;5113790;28;20198;-81
2022/05/10 08:06:36;;;;;;;1.40;0.63;;;21.50;99.90;21.30;101665.00;;;;5115461;28;20641;-82
2022/05/10 08:09:08;;;;;;;0.40;0.40;;;21.40;99.90;21.30;101644.00;;;;5116456;28;20166;-79
2022/05/10 08:11:36;;;;;;;0.43;0.43;;;21.40;99.90;21.10;101660.00;;;;5114909;28;20230;-79
2022/05/10 08:14:05;;;;;;;3.70;3.35;;;21.20;99.90;21.40;101623.00;;;;5114341;28;20206;-81
2022/05/10 08:16:34;;;;;;;1.17;1.08;;;21.20;99.90;21.20;101652.00;;;;5094316;28;20185;-81
2022/05/10 08:19:05;;;;;;;0.30;0.30;;;21.30;99.90;21.60;101650.00;;;;5095732;28;20163;-81
2022/05/10 08:21:40;;;;;;;0.25;0.25;;;21.50;99.90;21.70;101646.00;;;;5105540;28;20205;-82
2022/05/10 08:24:51;;;;;;;0.30;0.30;;;21.70;99.90;22.80;101675.00;;;;5108097;27;20269;-79
2022/05/10 08:28:14;;;;;;;0.10;0.10;;;22.40;99.90;22.30;101661.00;;;;5093998;28;20238;-80
2022/05/10 08:31:30;;;;;;;1.45;1.35;;;22.10;99.90;21.90;101681.00;;;;5097016;28;20189;-83
2022/05/10 08:34:48;;;;;;;0.20;0.20;;;22.10;99.90;22.50;101670.00;;;;5078714;28;20246;-78
2022/05/10 08:38:29;;;;;;;0.30;0.30;;;22.10;99.90;22.00;101668.00;;;;5097354;28;20333;-85
2022/05/10 08:41:25;;;;;;;0.50;0.50;;;22.10;99.90;22.30;101638.00;;;;5105465;28;20187;-88
2022/05/10 08:45:02;;;;;;;0.10;0.10;;;22.10;99.90;22.70;101682.00;;;;5115624;28;20190;-87
2022/05/10 08:47:51;;;;;;;0.20;0.20;;;22.30;99.90;24.40;101655.00;;;;5114265;28;20191;-87
2022/05/10 08:51:02;;;;;;;0.10;0.10;;;23.50;99.90;24.80;101701.00;;;;5097292;28;20189;-83
2022/05/10 08:53:55;;;;;;;3.80;0.60;;;23.90;99.90;25.60;101719.00;;;;5113380;28;20195;-82
2022/05/10 08:57:05;;;;;;;0.10;0.10;;;24.70;99.90;24.00;101687.00;;;;5090676;28;20579;-83
2022/05/10 09:00:00;;;;;;;0.38;0.38;;;24.50;99.90;23.20;101590.00;;;;5079327;28;20238;-79
2022/05/10 09:02:40;;;;;;;0.85;0.80;;;23.40;99.90;24.10;101682.00;;;;5095513;28;20219;-68
2022/05/10 09:05:36;;;;;;;0.10;0.10;;;23.90;99.90;24.20;101688.00;;;;5109244;28;20325;-82
2022/05/10 09:08:51;;;;;;;0.65;0.65;;;24.00;99.90;25.20;101689.00;;;;5106458;28;20661;-79
2022/05/10 09:15:13;;;;;;;0.30;0.30;;;24.90;99.90;25.10;101691.00;;;;5113706;28;20187;-78
2022/05/10 09:18:04;;;;;;;1.35;1.25;;;25.00;99.90;25.60;101696.00;;;;5114238;28;20528;-68
2022/05/10 09:21:13;;;;;;;0.40;0.40;;;25.40;99.90;26.10;101692.00;;;;5097555;28;20184;-81
2022/05/10 09:24:31;;;;;;;0.73;0.73;;;25.50;99.90;25.80;101686.00;;;;5113475;28;20551;-81
2022/05/10 09:27:06;;;;;;;0.40;0.40;;;25.20;99.90;26.60;101682.00;;;;5094510;28;20186;-84
2022/05/10 09:29:48;;;;;;;0.82;0.50;;;26.20;99.90;26.00;101639.00;;;;5093134;28;20260;-83
2022/05/10 09:35:30;;;;;;;0.10;0.10;;;26.20;99.90;28.30;101684.00;;;;5104581;28;20238;-80
2022/05/10 09:38:06;;;;;;;0.68;0.68;;;27.30;99.90;29.30;101689.00;;;;5096217;28;20176;-81
2022/05/10 09:40:46;;;;;;;0.10;0.10;;;28.50;99.90;28.90;101677.00;;;;5108945;28;20175;-79
2022/05/10 09:43:32;;;;;;;0.38;0.38;;;28.30;99.90;28.20;101678.00;;;;5095455;28;20218;-79
2022/05/10 09:46:38;;;;;;;0.68;0.68;;;28.10;99.90;26.80;101675.00;;;;5107566;28;20222;-80
2022/05/10 09:49:50;;;;;;;0.65;0.65;;;27.60;99.90;27.00;101675.00;;;;5091516;28;20188;-81
2022/05/10 09:53:08;;;;;;;0.20;0.20;;;27.00;99.90;26.90;101680.00;;;;5093553;28;20192;-80
2022/05/10 09:56:33;;;;;;;2.35;1.58;;;27.00;99.90;24.70;101700.00;;;;5092317;28;20176;-80
2022/05/10 09:59:30;;;;;;;0.30;0.30;;;25.50;99.90;24.90;101685.00;;;;5090012;28;20258;-81
2022/05/10 10:02:02;;;;;;;1.40;1.35;;;25.00;99.90;24.00;101674.00;;;;5107356;28;20292;-80
2022/05/10 10:04:44;;;;;;;1.10;1.10;;;24.20;99.90;24.20;101684.00;;;;5100831;28;20191;-81
2022/05/10 10:07:22;;;;;;;0.50;0.50;;;24.10;99.90;24.30;101692.00;;;;5094450;28;20184;-80
2022/05/10 10:10:01;;;;;;;0.75;0.75;;;24.20;99.90;24.90;101681.00;;;;5111913;28;20180;-67
2022/05/10 10:12:36;;;;;;;1.15;0.98;;;24.50;99.90;25.00;101674.00;;;;5093877;28;20253;-82
2022/05/10 10:15:32;;;;;;;0.77;0.77;;;24.60;99.90;25.10;101661.00;;;;5075288;28;20319;-81
2022/05/10 10:18:45;;;;;;;0.73;0.73;;;24.70;99.90;24.80;101682.00;;;;5093061;28;20177;-81
2022/05/10 10:33:34;;;;;;;1.95;1.30;;;24.60;99.90;25.60;101651.00;;;;5111486;27;1372806;-74
2022/05/10 10:36:09;;;;;;;3.22;0.90;;;25.10;99.90;26.10;101677.00;;;;5130545;28;20215;-75
2022/05/10 10:38:55;;;;;;;7.53;3.53;;;25.50;99.90;25.20;101650.00;;;;5129761;28;20201;-75
2022/05/10 10:41:33;;;;;;;5.93;2.15;;;25.20;99.90;24.90;101679.00;;;;5128078;28;20190;-74
2022/05/10 10:44:37;;;;;;;3.88;2.60;;;25.00;99.90;24.80;101672.00;;;;5129659;28;20185;-77
2022/05/10 10:47:29;;;;;;;1.52;1.20;;;24.60;99.90;24.60;101669.00;;;;5069941;28;20199;-76
2022/05/10 10:50:26;;;;;;;0.47;0.47;;;24.50;99.90;23.90;101643.00;;;;5126113;28;20237;-78
2022/05/10 10:53:00;;;;;;;4.00;2.38;;;23.90;99.90;24.70;101660.00;;;;5129949;28;20223;-77
2022/05/10 10:56:15;;;;;;;1.67;1.48;;;24.30;99.90;25.00;101668.00;;;;5129789;28;20175;-79
2022/05/10 10:58:54;;;;;;;1.40;1.30;;;24.60;99.90;24.60;101671.00;;;;5104686;27;20196;-79
2022/05/10 11:02:02;;;;;;;3.40;1.20;;;24.70;99.90;25.20;101661.00;;;;5130979;27;20184;-78
2022/05/10 11:05:09;;;;;;;2.05;1.08;;;25.00;99.90;25.20;101667.00;;;;5079461;28;20206;-78
2022/05/10 11:08:02;;;;;;;7.90;3.08;;;25.00;99.90;24.50;101658.00;;;;5130966;28;20144;-78
2022/05/10 11:10:42;;;;;;;2.30;1.58;;;24.90;99.90;24.50;101666.00;;;;5130020;28;20180;-78
2022/05/10 11:13:38;;;;;;;3.50;2.10;;;24.60;99.90;25.70;101663.00;;;;5130712;27;20171;-82
2022/05/10 11:16:36;;;;;;;2.30;1.75;;;25.00;99.90;25.50;101665.00;;;;5130989;28;20176;-82
2022/05/10 11:19:48;;;;;;;0.68;0.68;;;25.10;99.90;25.20;101660.00;;;;5129024;28;20195;-84
2022/05/10 11:22:41;;;;;;;1.05;1.05;;;25.50;99.90;24.50;101656.00;;;;5128816;28;20195;-84
2022/05/10 11:25:58;;;;;;;1.77;1.33;;;24.70;99.90;24.30;101654.00;;;;5129234;28;20258;-82
2022/05/10 11:29:05;;;;;;;1.65;1.52;;;24.30;99.90;25.10;101661.00;;;;5128410;28;20195;-83
2022/05/10 11:32:08;;;;;;;2.13;1.70;;;24.80;99.90;25.10;101662.00;;;;5112205;28;20203;-83
2022/05/10 11:34:58;;;;;;;0.28;0.28;;;24.90;99.90;25.90;101621.00;;;;5129364;28;20232;-83
2022/05/10 11:37:39;;;;;;;1.40;1.05;;;25.40;99.90;26.00;101646.00;;;;5129187;28;20184;-82
2022/05/10 11:40:21;;;;;;;0.60;0.60;;;25.60;99.90;25.00;101659.00;;;;5111631;28;20567;-82
2022/05/10 11:43:08;;;;;;;0.40;0.40;;;25.20;99.90;25.30;101659.00;;;;5125101;28;20271;-82
2022/05/10 11:45:34;;;;;;;3.40;1.75;;;25.00;99.90;26.70;101656.00;;;;5116034;28;20267;-83
2022/05/10 11:48:34;;;;;;;1.45;1.38;;;25.80;99.90;25.80;101627.00;;;;5116962;28;20619;-81
2022/05/10 11:51:51;;;;;;;1.60;1.50;;;25.90;99.90;24.80;101651.00;;;;5114430;28;20176;-83
2022/05/10 11:54:42;;;;;;;3.17;1.42;;;25.30;99.90;25.70;101648.00;;;;5112084;28;20192;-82
2022/05/10 11:57:16;;;;;;;5.38;0.68;;;25.40;99.90;25.00;101652.00;;;;5114875;28;20188;-82
2022/05/10 11:59:44;;;;;;;1.00;1.00;;;25.10;99.90;24.80;101634.00;;;;5097792;28;20184;-82
2022/05/10 12:02:30;;;;;;;0.65;0.65;;;24.80;99.90;25.30;101657.00;;;;5115161;28;20273;-81